createdAt,value
2022-12-18T04:08:41.597Z,7.28
2022-12-18T04:11:12.752Z,6.53
2022-12-18T04:13:41.576Z,7.70
2022-12-18T04:16:18.092Z,10.70
2022-12-18T04:18:47.355Z,6.90
2022-12-18T04:21:17.620Z,6.78
2022-12-18T04:23:49.943Z,6.53
2022-12-18T04:26:21.367Z,11.75
2022-12-18T04:29:02.085Z,6.47
2022-12-18T04:31:30.511Z,7.70
2022-12-18T04:33:58.421Z,6.72
2022-12-18T04:36:26.580Z,7.47
2022-12-18T04:38:54.858Z,6.70
2022-12-18T04:41:22.941Z,7.63
2022-12-18T04:43:53.850Z,6.82
2022-12-18T04:46:21.802Z,5.80
2022-12-18T04:48:49.658Z,6.90
2022-12-18T04:51:23.305Z,6.25
2022-12-18T04:53:54.600Z,6.05
2022-12-18T04:56:24.285Z,6.05
2022-12-18T04:58:52.391Z,6.60
2022-12-18T05:01:20.611Z,7.15
2022-12-18T05:03:48.672Z,6.13
2022-12-18T05:06:16.815Z,8.50
2022-12-18T05:08:44.995Z,12.60
2022-12-18T05:11:17.864Z,11.52
2022-12-18T05:13:47.097Z,15.60
2022-12-18T05:16:22.666Z,13.35
2022-12-18T05:18:50.918Z,14.27
2022-12-18T05:21:18.810Z,19.40
2022-12-18T05:23:47.478Z,18.42
2022-12-18T05:26:17.467Z,18.83
2022-12-18T05:28:45.832Z,21.52
2022-12-18T05:31:14.050Z,23.25
2022-12-18T05:33:42.343Z,20.30
2022-12-18T05:36:10.818Z,27.42
2022-12-18T05:38:39.549Z,18.50
2022-12-18T05:41:09.367Z,25.42
2022-12-18T05:43:39.065Z,23.40
2022-12-18T05:46:08.595Z,20.98
2022-12-18T05:48:36.730Z,19.50
2022-12-18T05:51:12.717Z,21.52
2022-12-18T05:53:41.524Z,21.08
2022-12-18T05:56:16.846Z,23.00
2022-12-18T05:58:44.956Z,22.50
2022-12-18T06:01:21.013Z,22.50
2022-12-18T06:03:50.782Z,21.38
2022-12-18T06:06:24.404Z,21.67
2022-12-18T06:08:53.307Z,17.67
2022-12-18T06:11:24.439Z,23.13
2022-12-18T06:13:58.204Z,18.13
2022-12-18T06:16:28.140Z,26.17
2022-12-18T06:19:00.820Z,18.63
2022-12-18T06:21:29.809Z,20.38
2022-12-18T06:24:01.332Z,20.15
2022-12-18T06:26:29.364Z,19.25
2022-12-18T06:28:59.678Z,19.38
2022-12-18T06:31:27.891Z,20.10
2022-12-18T06:33:55.990Z,20.08
2022-12-18T06:36:24.246Z,26.17
2022-12-18T06:38:52.208Z,19.60
2022-12-18T06:41:21.419Z,20.60
2022-12-18T06:43:49.333Z,17.48
2022-12-18T06:46:17.531Z,16.88
2022-12-18T06:48:49.682Z,17.67
2022-12-18T06:51:19.409Z,22.52
2022-12-18T06:53:50.936Z,18.20
2022-12-18T06:56:18.815Z,19.65
2022-12-18T06:58:47.092Z,21.30
2022-12-18T07:01:18.636Z,17.50
2022-12-18T07:03:52.353Z,23.02
2022-12-18T07:06:20.795Z,21.60
2022-12-18T07:08:48.913Z,18.42
2022-12-18T07:11:17.838Z,19.15
2022-12-18T07:13:48.418Z,22.48
2022-12-18T07:16:25.250Z,13.13
2022-12-18T07:18:55.260Z,22.65
2022-12-18T07:21:24.798Z,19.52
2022-12-18T07:23:53.195Z,21.65
2022-12-18T07:26:22.059Z,16.35
2022-12-18T07:28:50.008Z,18.48
2022-12-18T07:31:21.518Z,19.13
2022-12-18T07:33:49.920Z,18.58
2022-12-18T07:36:18.017Z,20.67
2022-12-18T07:38:48.534Z,27.90
2022-12-18T07:41:16.488Z,29.90
2022-12-18T07:43:44.911Z,28.48
2022-12-18T07:46:17.813Z,27.20
2022-12-18T07:48:49.273Z,31.38
2022-12-18T07:51:19.486Z,32.67
2022-12-18T07:53:52.395Z,35.10
2022-12-18T07:56:27.814Z,35.78
2022-12-18T07:58:57.163Z,37.42
2022-12-18T08:01:25.539Z,30.35
2022-12-18T08:03:56.398Z,32.92
2022-12-18T08:06:27.763Z,34.22
2022-12-18T08:08:57.176Z,28.38
2022-12-18T08:11:27.116Z,30.65
2022-12-18T08:13:55.212Z,33.00
2022-12-18T08:16:23.772Z,37.40
2022-12-18T08:18:53.824Z,35.45
2022-12-18T08:21:24.858Z,31.33
2022-12-18T08:23:53.946Z,30.70
2022-12-18T08:26:22.552Z,36.03
2022-12-18T08:29:17.279Z,36.10
2022-12-18T08:31:49.391Z,31.13
2022-12-18T08:34:22.696Z,29.35
2022-12-18T08:36:55.295Z,30.38
2022-12-18T08:39:23.279Z,29.00
2022-12-18T08:42:10.531Z,31.85
2022-12-18T08:44:38.493Z,28.73
2022-12-18T08:47:11.015Z,29.02
2022-12-18T08:49:39.138Z,27.15
2022-12-18T08:52:07.192Z,32.95
2022-12-18T08:54:38.446Z,26.60
2022-12-18T08:57:08.606Z,33.35
2022-12-18T08:59:37.696Z,31.05
2022-12-18T09:02:10.751Z,30.17
2022-12-18T09:04:38.816Z,28.92
2022-12-18T09:07:07.437Z,30.63
2022-12-18T09:09:36.032Z,25.73
2022-12-18T09:12:04.208Z,25.98
2022-12-18T09:14:35.230Z,25.77
2022-12-18T09:17:09.613Z,21.17
2022-12-18T09:19:37.518Z,22.38
2022-12-18T09:22:05.381Z,18.38
2022-12-18T09:24:35.167Z,20.55
2022-12-18T09:27:03.514Z,20.98
2022-12-18T09:29:31.814Z,21.92
2022-12-18T09:31:59.840Z,24.60
2022-12-18T09:34:28.801Z,24.08
2022-12-18T09:36:56.824Z,25.85
2022-12-18T09:39:24.960Z,30.25
2022-12-18T09:41:58.207Z,30.08
2022-12-18T09:44:32.134Z,28.33
2022-12-18T09:47:36.350Z,28.65
2022-12-18T09:50:17.690Z,32.17
2022-12-18T09:52:48.762Z,31.08
2022-12-18T09:55:37.173Z,25.55
2022-12-18T09:58:27.951Z,28.75
2022-12-18T10:00:55.956Z,31.88
2022-12-18T10:03:24.180Z,31.90
2022-12-18T10:06:15.715Z,32.75
2022-12-18T10:08:52.884Z,32.05
2022-12-18T10:11:40.061Z,27.77
2022-12-18T10:14:19.998Z,30.40
2022-12-18T10:16:57.192Z,22.38
2022-12-18T10:19:43.745Z,25.80
2022-12-18T10:22:29.984Z,25.27
2022-12-18T10:25:20.318Z,21.02
2022-12-18T10:27:48.702Z,20.67
2022-12-18T10:30:19.221Z,17.27
2022-12-18T10:32:48.190Z,17.10
2022-12-18T10:35:21.907Z,15.95
2022-12-18T10:38:09.788Z,19.50
2022-12-18T10:40:58.045Z,11.93
2022-12-18T10:43:35.975Z,10.15
2022-12-18T10:46:08.674Z,15.90
2022-12-18T10:48:48.770Z,12.68
2022-12-18T10:51:31.391Z,10.90
2022-12-18T10:54:38.057Z,13.13
2022-12-18T10:57:42.672Z,11.27
2022-12-18T11:00:30.644Z,18.27
2022-12-18T11:03:00.406Z,14.05
2022-12-18T11:05:34.670Z,15.77
2022-12-18T11:08:03.451Z,13.95
2022-12-18T11:10:38.842Z,8.52
2022-12-18T11:13:27.848Z,14.65
2022-12-18T11:15:56.407Z,16.40
2022-12-18T11:18:31.032Z,19.63
2022-12-18T11:21:11.009Z,21.35
2022-12-18T11:23:49.740Z,18.52
2022-12-18T11:26:17.992Z,22.05
2022-12-18T11:28:48.823Z,17.85
2022-12-18T11:31:17.169Z,23.65
2022-12-18T11:34:31.187Z,15.18
2022-12-18T11:37:02.728Z,21.73
2022-12-18T11:39:56.040Z,13.45
2022-12-18T11:42:51.117Z,23.48
2022-12-18T11:45:27.321Z,11.50
2022-12-18T11:48:18.476Z,22.35
2022-12-18T11:50:52.287Z,22.05
2022-12-18T11:53:20.459Z,14.30
2022-12-18T11:55:48.923Z,12.13
2022-12-18T11:58:31.547Z,7.35
2022-12-18T12:01:08.263Z,10.45
2022-12-18T12:03:42.686Z,11.73
2022-12-18T12:06:30.530Z,13.15
2022-12-18T12:09:22.685Z,11.07
2022-12-18T12:11:56.910Z,10.02
2022-12-18T12:14:59.365Z,12.85
2022-12-18T12:17:39.436Z,11.23
2022-12-18T12:20:24.344Z,14.75
2022-12-18T12:23:24.692Z,14.68
2022-12-18T12:26:22.010Z,14.35
2022-12-18T12:29:15.452Z,20.25
2022-12-18T12:32:03.322Z,17.13
2022-12-18T12:34:38.345Z,22.23
2022-12-18T12:37:43.880Z,19.38
2022-12-18T12:40:50.857Z,19.38
2022-12-18T12:43:32.158Z,18.15
2022-12-18T12:46:10.524Z,12.35
2022-12-18T12:48:58.043Z,18.15
2022-12-18T12:51:28.564Z,17.05
2022-12-18T12:53:57.911Z,19.75
2022-12-18T12:56:49.474Z,26.70
2022-12-18T12:59:46.358Z,19.02
2022-12-18T13:02:40.574Z,13.57
2022-12-18T13:05:29.566Z,19.98
2022-12-18T13:08:04.600Z,20.27
2022-12-18T13:10:41.680Z,20.30
2022-12-18T13:13:16.572Z,26.02
2022-12-18T13:15:49.609Z,19.90
2022-12-18T13:18:29.512Z,14.63
2022-12-18T13:21:03.338Z,22.45
2022-12-18T13:23:34.636Z,13.43
2022-12-18T13:26:12.417Z,21.00
2022-12-18T13:28:47.337Z,22.38
2022-12-18T13:31:42.226Z,18.15
2022-12-18T13:34:28.080Z,16.10
2022-12-18T13:37:15.828Z,20.77
2022-12-18T13:39:44.401Z,17.05
2022-12-18T13:42:32.475Z,12.75
2022-12-18T13:45:00.648Z,16.15
2022-12-18T13:47:36.295Z,17.75
2022-12-18T13:50:14.216Z,18.85
2022-12-18T13:52:46.925Z,18.17
2022-12-18T13:55:19.380Z,17.27
2022-12-18T13:57:49.456Z,17.33
2022-12-18T14:00:24.045Z,16.77
2022-12-18T14:02:53.811Z,11.32
2022-12-18T14:05:32.632Z,11.57
2022-12-18T14:08:22.525Z,16.70
2022-12-18T14:10:58.565Z,14.52
2022-12-18T14:13:32.577Z,17.05
2022-12-18T14:16:05.734Z,12.20
2022-12-18T14:18:45.970Z,15.15
2022-12-18T14:21:30.794Z,15.77
2022-12-18T14:24:06.252Z,16.48
2022-12-18T14:26:35.063Z,14.85
2022-12-18T14:29:21.592Z,14.98
2022-12-18T14:32:19.454Z,18.00
2022-12-18T14:34:48.879Z,17.63
2022-12-18T14:37:28.680Z,17.90
2022-12-18T14:40:07.103Z,18.25
2022-12-18T14:42:39.072Z,20.40
2022-12-18T14:45:41.432Z,17.90
2022-12-18T14:48:10.647Z,21.67
2022-12-18T14:51:08.454Z,19.90
2022-12-18T14:54:24.829Z,16.73
2022-12-18T14:57:03.917Z,15.10
2022-12-18T14:59:35.642Z,15.57
2022-12-18T15:02:21.612Z,21.48
2022-12-18T15:05:16.746Z,10.30
2022-12-18T15:07:47.372Z,19.23
2022-12-18T15:10:23.287Z,11.60
2022-12-18T15:13:01.678Z,16.38
2022-12-18T15:15:39.775Z,15.27
2022-12-18T15:18:13.939Z,16.83
2022-12-18T15:20:50.435Z,15.38
2022-12-18T15:23:30.819Z,19.52
2022-12-18T15:26:07.073Z,17.40
2022-12-18T15:28:58.542Z,19.92
2022-12-18T15:31:38.970Z,15.38
2022-12-18T15:34:09.593Z,13.45
2022-12-18T15:36:37.709Z,14.07
2022-12-18T15:39:06.700Z,18.05
2022-12-18T15:41:37.210Z,20.38
2022-12-18T15:44:18.329Z,10.57
2022-12-18T15:46:47.884Z,16.90
2022-12-18T15:49:15.968Z,12.68
2022-12-18T15:51:45.023Z,18.08
2022-12-18T15:54:15.801Z,14.25
2022-12-18T15:57:02.915Z,19.63
2022-12-18T15:59:32.158Z,17.10
2022-12-18T16:02:09.516Z,19.95
2022-12-18T16:04:40.342Z,8.98
2022-12-18T16:07:17.543Z,15.32
2022-12-18T16:09:52.960Z,19.15
2022-12-18T16:12:22.741Z,17.85
2022-12-18T16:14:52.168Z,18.52
2022-12-18T16:17:31.089Z,19.25
2022-12-18T16:19:59.759Z,18.92
2022-12-18T16:22:29.711Z,17.17
2022-12-18T16:24:58.164Z,13.85
2022-12-18T16:27:27.024Z,13.15
2022-12-18T16:29:54.977Z,20.08
2022-12-18T16:32:28.892Z,20.90
2022-12-18T16:35:01.229Z,15.85
2022-12-18T16:37:29.201Z,10.68
2022-12-18T16:39:57.333Z,12.52
2022-12-18T16:42:26.707Z,19.50
2022-12-18T16:44:54.719Z,22.13
2022-12-18T16:47:25.762Z,18.75
2022-12-18T16:49:56.982Z,18.52
2022-12-18T16:52:25.614Z,19.25
2022-12-18T16:54:53.723Z,20.58
2022-12-18T16:57:24.667Z,15.20
2022-12-18T17:00:11.540Z,16.58
2022-12-18T17:02:41.306Z,9.00
2022-12-18T17:05:11.791Z,14.90
2022-12-18T17:07:40.067Z,18.85
2022-12-18T17:10:08.305Z,15.07
2022-12-18T17:12:38.013Z,15.00
2022-12-18T17:15:06.527Z,15.02
2022-12-18T17:17:36.635Z,17.40
2022-12-18T17:20:07.029Z,15.00
2022-12-18T17:22:37.345Z,8.00
2022-12-18T17:25:05.693Z,16.52
2022-12-18T17:27:35.151Z,12.05
2022-12-18T17:30:03.572Z,7.97
2022-12-18T17:32:32.564Z,14.05
2022-12-18T17:35:05.453Z,4.63
2022-12-18T17:37:36.770Z,14.77
2022-12-18T17:40:05.227Z,15.30
2022-12-18T17:42:33.346Z,6.47
2022-12-18T17:45:01.908Z,10.50
2022-12-18T17:47:30.496Z,11.57
2022-12-18T17:49:59.692Z,13.15
2022-12-18T17:52:28.251Z,11.90
2022-12-18T17:54:56.694Z,10.13
2022-12-18T17:57:27.228Z,11.35
2022-12-18T17:59:56.431Z,7.78
2022-12-18T18:02:24.979Z,6.25
2022-12-18T18:04:53.035Z,9.52
2022-12-18T18:07:23.203Z,12.35
2022-12-18T18:09:55.261Z,9.30
2022-12-18T18:12:48.987Z,5.82
2022-12-18T18:15:17.222Z,13.07
2022-12-18T18:17:51.627Z,14.10
2022-12-18T18:20:25.665Z,11.30
2022-12-18T18:22:54.258Z,8.50
2022-12-18T18:25:24.735Z,9.73
2022-12-18T18:27:53.624Z,12.48
2022-12-18T18:30:23.090Z,8.98
2022-12-18T18:32:50.949Z,13.32
2022-12-18T18:35:52.434Z,8.05
2022-12-18T18:38:09.406Z,9.80
2022-12-18T18:40:38.467Z,12.07
2022-12-18T18:43:09.177Z,9.10
2022-12-18T18:45:37.372Z,10.05
2022-12-18T18:48:05.905Z,10.35
2022-12-18T18:50:34.029Z,8.55
2022-12-18T18:53:02.001Z,9.10
2022-12-18T18:55:34.618Z,10.65
2022-12-18T18:58:05.092Z,7.15
2022-12-18T19:00:34.416Z,8.32
2022-12-18T19:03:07.420Z,6.47
2022-12-18T19:05:35.590Z,9.50
2022-12-18T19:08:03.638Z,12.20
2022-12-18T19:10:39.627Z,10.38
2022-12-18T19:13:27.717Z,8.55
2022-12-18T19:16:10.248Z,5.45
2022-12-18T19:18:38.978Z,7.20
2022-12-18T19:21:08.702Z,9.48
2022-12-18T19:23:36.705Z,12.02
2022-12-18T19:26:27.040Z,11.35
2022-12-18T19:28:54.247Z,15.63
2022-12-18T19:31:29.192Z,16.83
2022-12-18T19:34:00.147Z,13.15
2022-12-18T19:36:29.306Z,13.07
2022-12-18T19:38:58.953Z,8.48
2022-12-18T19:41:31.609Z,5.80
2022-12-18T19:44:02.233Z,10.45
2022-12-18T19:46:38.869Z,9.38
2022-12-18T19:49:11.746Z,11.32
2022-12-18T19:51:50.192Z,11.23
2022-12-18T19:54:18.569Z,13.55
2022-12-18T19:56:48.004Z,6.63
2022-12-18T19:59:20.349Z,9.80
2022-12-18T20:01:51.015Z,11.18
2022-12-18T20:04:22.140Z,11.45
2022-12-18T20:06:54.723Z,11.13
2022-12-18T20:09:25.486Z,13.38
2022-12-18T20:11:54.852Z,10.52
2022-12-18T20:14:23.855Z,12.20
2022-12-18T20:16:52.659Z,11.02
2022-12-18T20:19:21.575Z,13.23
2022-12-18T20:21:49.451Z,11.75
2022-12-18T20:24:19.502Z,10.15
2022-12-18T20:26:48.656Z,10.02
2022-12-18T20:29:17.591Z,9.50
2022-12-18T20:31:46.110Z,9.82
2022-12-18T20:34:14.391Z,10.00
2022-12-18T20:36:42.721Z,11.02
2022-12-18T20:39:13.366Z,10.30
2022-12-18T20:41:44.911Z,10.52
2022-12-18T20:44:22.726Z,10.05
2022-12-18T20:46:57.416Z,10.43
2022-12-18T20:49:28.626Z,6.72
2022-12-18T20:51:57.736Z,10.68
2022-12-18T20:54:32.968Z,13.02
2022-12-18T20:57:00.994Z,10.95
2022-12-18T20:59:35.346Z,13.77
2022-12-18T21:02:06.193Z,15.75
2022-12-18T21:04:36.523Z,10.75
2022-12-18T21:07:05.014Z,10.90
2022-12-18T21:09:37.644Z,7.47
2022-12-18T21:12:43.347Z,7.22
2022-12-18T21:15:42.098Z,10.70
2022-12-18T21:18:29.829Z,9.00
2022-12-18T21:21:27.040Z,7.80
2022-12-18T21:23:59.819Z,8.20
2022-12-18T21:26:32.514Z,8.68
2022-12-18T21:29:14.853Z,9.75
2022-12-18T21:31:46.509Z,8.85
2022-12-18T21:34:19.184Z,8.35
2022-12-18T21:36:48.280Z,7.85
2022-12-18T21:39:16.453Z,6.82
2022-12-18T21:42:03.348Z,8.15
2022-12-18T21:44:32.814Z,10.02
2022-12-18T21:47:21.471Z,6.22
2022-12-18T21:49:52.896Z,8.52
2022-12-18T21:52:31.545Z,9.10
2022-12-18T21:55:09.557Z,7.57
2022-12-18T21:57:40.650Z,12.25
2022-12-18T22:00:18.465Z,9.27
2022-12-18T22:03:18.621Z,6.70
2022-12-18T22:05:52.006Z,10.95
2022-12-18T22:08:39.837Z,7.90
2022-12-18T22:11:14.948Z,8.63
2022-12-18T22:13:44.249Z,8.70
2022-12-18T22:16:12.761Z,6.18
2022-12-18T22:18:40.664Z,10.98
2022-12-18T22:21:29.633Z,11.43
2022-12-18T22:24:01.894Z,11.18
2022-12-18T22:26:36.431Z,10.63
2022-12-18T22:29:30.181Z,8.40
2022-12-18T22:32:00.500Z,8.07
2022-12-18T22:34:28.848Z,9.65
2022-12-18T22:36:57.013Z,12.68
2022-12-18T22:39:32.741Z,5.30
2022-12-18T22:42:06.547Z,8.75
2022-12-18T22:44:35.443Z,12.70
2022-12-18T22:47:06.364Z,11.60
2022-12-18T22:49:36.410Z,9.25
2022-12-18T22:52:05.079Z,8.90
2022-12-18T22:54:33.135Z,10.10
2022-12-18T22:57:01.299Z,10.70
2022-12-18T22:59:29.671Z,8.02
2022-12-18T23:02:32.001Z,11.77
2022-12-18T23:05:01.764Z,11.27
2022-12-18T23:07:29.973Z,9.80
2022-12-18T23:10:00.883Z,9.45
2022-12-18T23:12:30.556Z,9.98
2022-12-18T23:14:58.943Z,11.18
2022-12-18T23:17:26.863Z,10.02
2022-12-18T23:19:55.243Z,10.60
2022-12-18T23:22:23.229Z,9.85
2022-12-18T23:24:51.069Z,7.25
2022-12-18T23:27:19.413Z,13.02
2022-12-18T23:29:48.419Z,8.98
2022-12-18T23:32:17.687Z,11.73
2022-12-18T23:34:45.500Z,12.18
2022-12-18T23:37:24.915Z,8.43
2022-12-18T23:40:02.757Z,9.27
2022-12-18T23:42:30.911Z,10.48
2022-12-18T23:44:58.770Z,8.70
2022-12-18T23:47:27.998Z,11.23
2022-12-18T23:49:55.847Z,8.80
2022-12-18T23:52:23.907Z,6.72
2022-12-18T23:54:51.734Z,6.00
2022-12-18T23:57:22.348Z,8.00
2022-12-18T23:59:53.831Z,11.85
